Terminal Aerodrome Forecast
Issued by NWS Bismarck, ND

Home | Current Version | Previous Version | Text Only | Print | Product List | Glossary On
Versions: 1 2 3 4 5 6 7 8 9 10 11 12 13 14 15 16 17 18 19 20 21 22 23 24 25 26 27 28
926
FTUS43 KBIS 231501 AAB
TAFBIS
TAF AMD
KBIS 231501Z 2315/2412 05012G18KT P6SM SCT025 SCT035
      TEMPO 2315/2317 BKN025 OVC035
     FM231800 28012G19KT P6SM SCT035 SCT150
     FM240100 30012KT P6SM SKC
     FM240600 28006KT P6SM SKC=

USA.gov is the U.S. government's official web portal to all federal, state and local government web resources and services.